Terminal Aerodrome Forecast
Issued by NWS

Home | Current Version | Previous Version | Text Only | Print | Product List | Glossary On
Versions: 1 2 3 4 5 6 7 8 9 10 11 12 13
000
FTUS42 KTBW 282322
TAFLAL
TAF
KLAL 282322Z 2900/2924 12006KT P6SM SCT040 BKN120
     FM290200 VRB03KT P6SM SCT040 SCT120 BKN250
     FM291400 12006KT P6SM SCT035 SCT250
     FM291800 14007KT P6SM VCTS SCT040CB BKN250=

USA.gov is the U.S. government's official web portal to all federal, state and local government web resources and services.